Time;durP1;ratioP1;P1;durP2;ratioP2;P2;SDS_P1;SDS_P2;PMS_P1;PMS_P2;Temp;Humidity;BMP_temperature;BMP_pressure;BME280_temperature;BME280_humidity;BME280_pressure;Samples;Min_cycle;Max_cycle;Signal;HPM_P1;HPM_P2
2021/12/13 00:01:05;;;;;;;104.82;53.42;;;1.50;99.90;;;;;;5002476;28;20231;-51
2021/12/13 00:03:47;;;;;;;101.65;53.63;;;1.50;99.90;;;;;;5002141;28;20268;-51
2021/12/13 00:06:19;;;;;;;93.45;53.08;;;1.50;99.90;;;;;;5003597;28;20526;-51
2021/12/13 00:08:56;;;;;;;90.65;51.65;;;1.50;99.90;;;;;;5003692;28;20201;-50
2021/12/13 00:11:30;;;;;;;80.43;48.78;;;1.70;99.90;;;;;;5002920;28;20263;-53
2021/12/13 00:14:15;;;;;;;91.35;51.92;;;1.80;99.90;;;;;;5002438;28;20200;-52
2021/12/13 00:16:47;;;;;;;97.47;50.45;;;1.70;99.90;;;;;;5002896;28;20229;-51
2021/12/13 00:19:23;;;;;;;114.57;55.22;;;1.80;99.90;;;;;;4994040;28;20255;-49
2021/12/13 00:22:04;;;;;;;85.70;50.38;;;1.90;99.90;;;;;;5002403;28;20523;-49
2021/12/13 00:24:36;;;;;;;85.82;52.35;;;1.80;99.90;;;;;;5002310;28;20264;-51
2021/12/13 00:27:10;;;;;;;98.72;53.33;;;1.80;99.90;;;;;;5002106;28;20551;-51
2021/12/13 00:29:58;;;;;;;93.18;48.15;;;1.70;99.90;;;;;;5001635;28;20237;-52
2021/12/13 00:32:57;;;;;;;112.47;52.17;;;1.80;99.90;;;;;;5001817;28;20272;-49
2021/12/13 00:35:37;;;;;;;99.18;51.78;;;2.30;99.90;;;;;;5001648;28;20226;-53
2021/12/13 00:38:08;;;;;;;109.75;56.42;;;2.50;99.90;;;;;;5001524;28;20205;-53
2021/12/13 00:40:50;;;;;;;108.45;58.30;;;2.70;99.90;;;;;;5000934;28;20197;-49
2021/12/13 00:43:25;;;;;;;102.93;55.33;;;2.40;99.90;;;;;;5001536;28;20280;-50
2021/12/13 00:45:58;;;;;;;110.25;55.72;;;2.30;99.90;;;;;;5001932;28;20208;-51
2021/12/13 00:48:30;;;;;;;108.00;58.95;;;2.20;99.90;;;;;;5000984;28;20205;-55
2021/12/13 00:51:15;;;;;;;115.22;57.05;;;2.10;99.90;;;;;;5001576;28;20198;-52
2021/12/13 00:53:47;;;;;;;108.85;56.30;;;2.40;99.90;;;;;;5001734;28;20527;-54
2021/12/13 00:56:42;;;;;;;103.28;56.15;;;2.10;99.90;;;;;;5001615;28;20247;-56
2021/12/13 00:59:27;;;;;;;100.40;56.55;;;2.20;99.90;;;;;;5002730;28;20209;-49
2021/12/13 01:01:59;;;;;;;100.28;54.70;;;2.00;99.90;;;;;;4998471;28;20225;-53
2021/12/13 01:04:48;;;;;;;107.00;55.80;;;1.70;99.90;;;;;;4991724;28;20230;-50
2021/12/13 01:07:34;;;;;;;108.60;57.85;;;1.40;99.90;;;;;;5002545;28;20220;-49
2021/12/13 01:10:22;;;;;;;119.40;57.90;;;1.10;99.90;;;;;;5002076;28;20237;-54
2021/12/13 01:12:52;;;;;;;118.50;62.35;;;1.30;99.90;;;;;;5001823;28;20240;-51
2021/12/13 01:15:37;;;;;;;112.20;56.67;;;1.10;99.90;;;;;;5000956;28;20197;-49
2021/12/13 01:21:53;;;;;;;110.30;59.28;;;1.30;99.90;;;;;;4991400;28;20218;-51
2021/12/13 01:25:03;;;;;;;105.22;58.35;;;1.20;99.90;;;;;;4992667;28;20226;-54
2021/12/13 01:27:10;;;;;;;112.80;62.72;;;1.20;99.90;;;;;;4981345;28;20210;-53
2021/12/13 01:29:38;;;;;;;114.05;61.78;;;1.30;99.90;;;;;;4992297;28;20206;-49
2021/12/13 01:32:08;;;;;;;114.35;61.13;;;1.40;99.90;;;;;;5000036;28;20225;-52
2021/12/13 01:34:37;;;;;;;110.70;59.08;;;1.30;99.90;;;;;;4992145;28;20267;-52
2021/12/13 01:37:14;;;;;;;130.77;64.20;;;1.30;99.90;;;;;;4995159;28;20515;-50
2021/12/13 01:39:49;;;;;;;113.45;61.65;;;1.30;99.90;;;;;;5000794;28;20255;-52
2021/12/13 01:42:19;;;;;;;97.53;57.65;;;1.20;99.90;;;;;;5000920;28;20278;-54
2021/12/13 01:44:54;;;;;;;108.32;61.30;;;1.30;99.90;;;;;;5000855;28;20225;-53
2021/12/13 01:47:43;;;;;;;119.28;61.63;;;1.30;99.90;;;;;;4992786;28;20193;-54
2021/12/13 01:50:18;;;;;;;115.35;63.20;;;1.20;99.90;;;;;;5002208;28;20201;-51
2021/12/13 01:52:50;;;;;;;117.28;61.40;;;1.00;99.90;;;;;;5001197;28;20467;-50
2021/12/13 01:55:46;;;;;;;124.63;66.40;;;1.00;99.90;;;;;;5000220;28;20282;-50
2021/12/13 02:01:10;;;;;;;126.90;65.35;;;1.10;99.90;;;;;;5000380;28;20389;-52
2021/12/13 02:03:58;;;;;;;131.35;67.30;;;1.00;99.90;;;;;;5000376;28;20221;-51
2021/12/13 02:06:35;;;;;;;126.25;67.95;;;1.10;99.90;;;;;;5000491;28;20197;-51
2021/12/13 02:09:22;;;;;;;131.70;69.10;;;1.10;99.90;;;;;;5000225;28;20502;-51
2021/12/13 02:11:53;;;;;;;115.90;68.32;;;1.50;99.90;;;;;;5000292;28;20292;-53
2021/12/13 02:14:25;;;;;;;135.32;70.88;;;1.70;99.90;;;;;;5004722;28;20229;-50
2021/12/13 02:19:42;;;;;;;132.10;68.63;;;1.80;99.90;;;;;;5004464;28;20200;-50
2021/12/13 02:22:33;;;;;;;106.20;63.30;;;1.70;99.90;;;;;;5004017;28;20267;-50
2021/12/13 02:25:14;;;;;;;133.63;71.05;;;1.70;99.90;;;;;;5004353;28;20601;-49
2021/12/13 02:27:48;;;;;;;117.80;64.78;;;1.60;99.90;;;;;;5004177;28;20388;-49
2021/12/13 02:30:36;;;;;;;124.47;66.57;;;1.70;99.90;;;;;;5005149;28;20201;-49
2021/12/13 02:33:07;;;;;;;110.47;63.63;;;1.90;99.90;;;;;;5005401;28;20280;-53
2021/12/13 02:35:40;;;;;;;109.05;61.95;;;2.00;99.90;;;;;;5005904;28;20225;-50
2021/12/13 02:38:10;;;;;;;116.15;63.88;;;2.10;99.90;;;;;;5005695;28;20554;-52
2021/12/13 02:40:38;;;;;;;116.10;63.97;;;2.10;99.90;;;;;;5007636;28;20221;-52
2021/12/13 02:43:08;;;;;;;105.38;64.85;;;2.30;99.90;;;;;;5008304;28;20229;-51
2021/12/13 02:45:44;;;;;;;113.93;64.05;;;2.40;99.90;;;;;;5004937;28;20214;-50
2021/12/13 02:48:15;;;;;;;112.53;61.55;;;2.20;99.90;;;;;;5003713;28;20202;-50
2021/12/13 02:51:17;;;;;;;105.60;57.05;;;2.40;99.90;;;;;;5004031;28;20201;-51
2021/12/13 02:53:51;;;;;;;108.65;62.83;;;2.40;99.90;;;;;;5004099;28;20216;-52
2021/12/13 02:56:23;;;;;;;109.55;62.28;;;2.50;99.90;;;;;;5003651;28;20333;-54
2021/12/13 02:58:51;;;;;;;113.35;59.95;;;2.50;99.90;;;;;;5005444;28;20439;-50
2021/12/13 03:01:37;;;;;;;105.45;60.25;;;2.40;99.90;;;;;;5004529;28;20352;-51
2021/12/13 03:04:08;;;;;;;106.05;59.58;;;2.50;99.90;;;;;;5003976;28;20233;-49
2021/12/13 03:06:40;;;;;;;98.85;57.58;;;2.40;99.90;;;;;;5004061;28;20220;-52
2021/12/13 03:09:12;;;;;;;107.68;60.45;;;2.30;99.90;;;;;;5004366;28;20198;-49
2021/12/13 03:11:41;;;;;;;100.85;57.20;;;2.20;99.90;;;;;;5004377;28;20518;-50
2021/12/13 03:14:16;;;;;;;111.93;60.05;;;2.20;99.90;;;;;;5003341;28;20202;-50
2021/12/13 03:16:52;;;;;;;118.50;61.90;;;2.10;99.90;;;;;;5004082;28;20400;-51
2021/12/13 03:19:34;;;;;;;105.00;58.53;;;2.20;99.90;;;;;;5004017;28;20420;-49
2021/12/13 03:22:41;;;;;;;113.60;58.47;;;2.10;99.90;;;;;;5003662;28;20256;-50
2021/12/13 03:25:32;;;;;;;101.95;56.95;;;2.20;99.90;;;;;;5003283;28;20244;-51
2021/12/13 03:28:37;;;;;;;104.40;61.20;;;2.30;99.90;;;;;;5003120;28;20197;-51
2021/12/13 03:31:15;;;;;;;93.68;57.88;;;2.50;99.90;;;;;;5003231;28;20213;-49
2021/12/13 03:33:55;;;;;;;94.85;58.65;;;2.50;99.90;;;;;;5002816;28;20221;-52
2021/12/13 03:36:36;;;;;;;101.28;52.33;;;2.60;99.90;;;;;;5003094;28;20501;-52
2021/12/13 03:39:08;;;;;;;95.50;57.45;;;2.70;99.90;;;;;;5001915;28;20229;-50
2021/12/13 03:41:40;;;;;;;117.85;58.58;;;2.80;99.90;;;;;;5002777;28;20217;-50
2021/12/13 03:44:16;;;;;;;109.72;58.70;;;2.70;99.90;;;;;;5002623;28;20401;-50
2021/12/13 03:46:46;;;;;;;96.57;56.90;;;2.80;99.90;;;;;;5002720;28;20201;-52
2021/12/13 03:49:17;;;;;;;115.63;57.33;;;3.10;99.90;;;;;;5002385;28;20415;-50
2021/12/13 03:51:44;;;;;;;92.57;50.00;;;3.10;99.90;;;;;;5002617;28;20213;-51
2021/12/13 03:54:16;;;;;;;87.13;51.72;;;2.90;99.90;;;;;;5002716;28;20225;-52
2021/12/13 03:56:47;;;;;;;88.68;52.53;;;2.80;99.90;;;;;;5002267;28;20202;-52
2021/12/13 03:59:20;;;;;;;99.25;50.00;;;2.80;99.90;;;;;;5002672;28;20209;-51
2021/12/13 04:02:06;;;;;;;106.90;55.35;;;2.90;99.90;;;;;;5002208;28;20228;-52
2021/12/13 04:04:40;;;;;;;105.00;52.53;;;2.50;99.90;;;;;;5002813;28;20280;-51
2021/12/13 04:07:13;;;;;;;105.38;54.15;;;2.30;99.90;;;;;;5002191;28;20198;-53
2021/12/13 04:09:44;;;;;;;99.95;50.13;;;2.40;99.90;;;;;;5002345;28;20428;-50
2021/12/13 04:12:14;;;;;;;96.00;52.03;;;2.70;99.90;;;;;;5002272;28;20532;-51
2021/12/13 04:14:54;;;;;;;81.53;48.15;;;2.90;99.90;;;;;;5001927;28;20201;-50
2021/12/13 04:17:43;;;;;;;93.53;47.80;;;3.00;99.90;;;;;;5002388;28;20201;-51
2021/12/13 04:20:20;;;;;;;86.93;47.45;;;3.00;99.90;;;;;;5001818;28;20210;-52
2021/12/13 04:22:55;;;;;;;87.80;46.40;;;2.90;99.90;;;;;;5003641;28;20283;-49
2021/12/13 04:25:27;;;;;;;78.82;44.60;;;2.90;99.90;;;;;;5003060;28;20216;-54
2021/12/13 04:28:03;;;;;;;78.72;44.33;;;2.70;99.90;;;;;;5001823;28;20508;-51
2021/12/13 04:30:39;;;;;;;89.40;47.97;;;2.70;99.90;;;;;;5001478;28;20209;-48
2021/12/13 04:33:12;;;;;;;72.72;42.60;;;2.90;99.90;;;;;;5001921;28;20466;-48
2021/12/13 04:35:41;;;;;;;82.82;44.35;;;2.70;99.90;;;;;;5001129;28;20454;-53
2021/12/13 04:38:09;;;;;;;83.00;41.65;;;2.60;99.90;;;;;;5001238;28;20216;-54
2021/12/13 04:40:39;;;;;;;69.15;38.63;;;2.70;99.90;;;;;;5001535;28;20292;-53
2021/12/13 04:43:13;;;;;;;77.88;46.78;;;2.60;99.90;;;;;;5001366;28;20350;-55
2021/12/13 04:45:46;;;;;;;87.80;43.38;;;2.90;99.90;;;;;;5001735;28;20390;-50
2021/12/13 04:48:17;;;;;;;94.10;49.53;;;2.90;99.90;;;;;;5001337;28;20496;-52
2021/12/13 04:50:56;;;;;;;87.70;45.47;;;3.10;99.90;;;;;;5001517;28;20507;-52
2021/12/13 04:53:46;;;;;;;75.53;41.90;;;3.20;99.90;;;;;;5001175;28;20201;-51
2021/12/13 04:56:21;;;;;;;74.65;40.03;;;3.40;99.90;;;;;;5001411;28;20205;-53
2021/12/13 04:58:50;;;;;;;73.55;37.83;;;3.20;99.90;;;;;;5001165;28;20200;-51
2021/12/13 05:01:19;;;;;;;77.00;39.75;;;3.30;99.90;;;;;;4992203;28;20263;-57
2021/12/13 05:03:54;;;;;;;89.68;44.25;;;3.40;99.90;;;;;;4984048;28;20204;-50
2021/12/13 05:06:30;;;;;;;70.55;40.95;;;3.20;99.90;;;;;;4984049;28;20198;-50
2021/12/13 05:08:59;;;;;;;76.80;37.97;;;3.10;99.90;;;;;;4983054;28;20210;-53
2021/12/13 05:11:36;;;;;;;68.97;37.92;;;3.10;99.90;;;;;;4983143;28;20233;-49
2021/12/13 05:14:06;;;;;;;73.10;39.65;;;2.90;99.90;;;;;;4986777;28;20244;-52
2021/12/13 05:16:47;;;;;;;68.88;39.35;;;2.80;99.90;;;;;;4989429;28;20202;-50
2021/12/13 05:19:25;;;;;;;69.72;38.78;;;3.10;99.90;;;;;;4985370;28;20529;-49
2021/12/13 05:21:55;;;;;;;79.45;38.30;;;3.30;99.90;;;;;;4982258;28;20255;-52
2021/12/13 05:24:26;;;;;;;80.47;42.40;;;3.50;99.90;;;;;;4981458;28;20261;-50
2021/12/13 05:26:58;;;;;;;79.40;41.15;;;3.60;99.90;;;;;;4980395;28;20199;-48
2021/12/13 05:29:40;;;;;;;82.43;42.38;;;3.50;99.90;;;;;;4987456;28;20554;-49
2021/12/13 05:32:21;;;;;;;63.20;41.25;;;3.40;99.90;;;;;;5015540;28;20275;-49
2021/12/13 05:34:56;;;;;;;65.60;38.75;;;3.50;99.90;;;;;;5020896;28;20197;-51
2021/12/13 05:37:37;;;;;;;76.75;40.20;;;3.60;99.90;;;;;;5020360;28;20333;-49
2021/12/13 05:40:09;;;;;;;97.30;49.92;;;3.50;99.90;;;;;;5020256;28;20508;-52
2021/12/13 05:42:43;;;;;;;85.93;47.63;;;3.70;99.90;;;;;;5019937;28;20446;-50
2021/12/13 05:45:36;;;;;;;91.10;44.60;;;3.70;99.90;;;;;;5022901;28;20231;-49
2021/12/13 05:48:19;;;;;;;91.03;44.00;;;3.70;99.90;;;;;;5016061;28;20215;-50
2021/12/13 05:50:57;;;;;;;78.43;44.55;;;3.80;99.90;;;;;;5001166;28;20518;-53
2021/12/13 05:53:34;;;;;;;89.43;44.03;;;3.90;99.90;;;;;;5001334;28;20197;-50
2021/12/13 05:56:01;;;;;;;72.00;39.95;;;3.80;99.90;;;;;;5004505;28;20209;-54
2021/12/13 05:58:32;;;;;;;72.47;42.10;;;3.80;99.90;;;;;;5008238;28;20225;-51
2021/12/13 06:01:02;;;;;;;71.53;40.13;;;3.80;99.90;;;;;;5008342;28;20488;-52
2021/12/13 06:03:34;;;;;;;78.32;40.13;;;3.50;99.90;;;;;;5019005;28;20204;-54
2021/12/13 06:06:14;;;;;;;114.10;51.47;;;3.50;99.90;;;;;;5020650;28;20543;-48
2021/12/13 06:08:45;;;;;;;139.15;57.47;;;3.50;99.90;;;;;;5020110;28;20198;-51
2021/12/13 06:11:32;;;;;;;102.95;48.65;;;3.60;99.90;;;;;;5019113;28;20245;-51
2021/12/13 06:14:16;;;;;;;95.15;43.90;;;3.80;99.90;;;;;;5020239;28;20202;-54
2021/12/13 06:16:51;;;;;;;97.18;45.47;;;3.80;99.90;;;;;;5020215;28;20196;-52
2021/12/13 06:19:37;;;;;;;85.68;43.72;;;3.90;99.90;;;;;;5020385;28;20204;-53
2021/12/13 06:22:18;;;;;;;80.32;41.15;;;4.10;99.90;;;;;;5020462;28;20264;-52
2021/12/13 06:25:08;;;;;;;71.05;37.67;;;3.90;99.90;;;;;;5020157;28;20256;-50
2021/12/13 06:27:54;;;;;;;68.78;39.38;;;3.80;99.90;;;;;;5020202;28;20296;-54
2021/12/13 06:30:32;;;;;;;110.55;48.78;;;3.80;99.90;;;;;;5020330;28;20428;-53
2021/12/13 06:33:03;;;;;;;67.45;38.53;;;3.90;99.90;;;;;;5019930;28;20604;-52
2021/12/13 06:35:53;;;;;;;67.30;37.38;;;3.80;99.90;;;;;;5019039;28;20266;-58
2021/12/13 06:38:36;;;;;;;86.28;39.47;;;3.90;99.90;;;;;;5018175;28;20642;-55
2021/12/13 06:41:08;;;;;;;63.75;32.20;;;4.10;99.90;;;;;;5009610;28;20538;-52
2021/12/13 06:43:50;;;;;;;62.30;31.88;;;4.10;99.90;;;;;;5009294;28;20211;-55
2021/12/13 06:46:23;;;;;;;75.72;37.92;;;4.20;99.90;;;;;;5008581;28;20277;-50
2021/12/13 06:49:00;;;;;;;61.47;34.50;;;4.20;99.90;;;;;;5019212;28;20198;-51
2021/12/13 06:51:48;;;;;;;49.50;30.65;;;4.30;99.90;;;;;;5018892;28;20271;-52
2021/12/13 06:54:39;;;;;;;62.25;33.65;;;4.30;99.90;;;;;;5018950;28;20198;-55
2021/12/13 06:57:06;;;;;;;64.53;36.22;;;4.40;99.90;;;;;;5019956;28;20245;-56
2021/12/13 06:59:37;;;;;;;65.70;32.67;;;4.50;99.90;;;;;;5022268;28;20802;-51
2021/12/13 07:02:12;;;;;;;58.78;31.45;;;4.50;99.90;;;;;;5023772;28;20465;-54
2021/12/13 07:04:59;;;;;;;63.88;34.25;;;4.50;99.90;;;;;;5023809;28;20230;-56
2021/12/13 07:07:37;;;;;;;62.72;31.52;;;4.60;99.90;;;;;;5024266;28;20209;-53
2021/12/13 07:10:14;;;;;;;65.03;31.35;;;4.60;99.90;;;;;;5023477;28;20207;-59
2021/12/13 07:12:57;;;;;;;52.33;29.45;;;4.60;99.90;;;;;;5024785;28;20225;-54
2021/12/13 07:15:39;;;;;;;57.72;31.67;;;4.50;99.90;;;;;;5024287;28;20240;-57
2021/12/13 07:18:18;;;;;;;43.50;28.02;;;4.50;99.90;;;;;;5022853;28;20213;-53
2021/12/13 07:20:54;;;;;;;54.33;28.33;;;4.60;99.90;;;;;;5023382;28;20247;-54
2021/12/13 07:23:22;;;;;;;50.65;28.08;;;4.70;99.90;;;;;;5023048;28;20498;-54
2021/12/13 07:25:55;;;;;;;74.60;31.80;;;4.80;99.90;;;;;;5023440;28;20234;-50
2021/12/13 07:28:36;;;;;;;50.58;29.48;;;4.80;99.90;;;;;;5021741;28;20389;-55
2021/12/13 07:31:07;;;;;;;55.88;30.85;;;4.80;99.90;;;;;;5022836;28;20577;-54
2021/12/13 07:33:42;;;;;;;49.63;27.10;;;4.90;99.90;;;;;;5023354;28;20198;-54
2021/12/13 07:36:23;;;;;;;54.15;30.13;;;4.90;99.90;;;;;;5023376;28;20253;-51
2021/12/13 07:38:57;;;;;;;58.78;32.70;;;5.00;99.90;;;;;;5023108;28;20215;-53
2021/12/13 07:41:44;;;;;;;61.08;32.30;;;5.00;99.90;;;;;;5023914;28;20285;-58
2021/12/13 07:44:43;;;;;;;62.95;30.63;;;5.10;99.90;;;;;;5022024;28;20201;-50
2021/12/13 07:47:18;;;;;;;50.33;27.27;;;5.10;99.90;;;;;;5025718;28;20239;-58
2021/12/13 07:49:56;;;;;;;57.83;25.90;;;5.10;99.90;;;;;;5022702;28;20455;-51
2021/12/13 07:52:34;;;;;;;49.03;27.40;;;5.00;99.90;;;;;;5021855;28;20245;-54
2021/12/13 07:55:22;;;;;;;53.85;29.45;;;4.90;99.90;;;;;;5022108;28;20231;-56
2021/12/13 07:57:50;;;;;;;57.40;27.77;;;5.10;99.90;;;;;;5022376;28;20210;-52
2021/12/13 08:00:35;;;;;;;58.38;26.55;;;5.00;99.90;;;;;;5023999;28;20199;-51
2021/12/13 08:03:07;;;;;;;66.07;25.98;;;5.00;99.90;;;;;;5022052;28;20225;-54
2021/12/13 08:05:49;;;;;;;59.95;25.48;;;4.80;99.90;;;;;;5022122;28;20222;-54
2021/12/13 08:08:20;;;;;;;48.28;24.13;;;4.80;99.90;;;;;;5021634;28;20252;-54
2021/12/13 08:10:50;;;;;;;59.65;22.40;;;4.80;99.90;;;;;;5021191;28;20363;-52
2021/12/13 08:13:26;;;;;;;53.25;24.05;;;4.60;99.90;;;;;;5021665;28;20225;-56
2021/12/13 08:16:00;;;;;;;48.70;27.05;;;4.70;99.90;;;;;;5022061;28;20215;-58
2021/12/13 08:18:30;;;;;;;39.88;19.15;;;4.90;99.90;;;;;;5021541;28;20261;-53
2021/12/13 08:21:00;;;;;;;41.70;21.00;;;4.90;99.90;;;;;;5022003;28;20278;-59
2021/12/13 08:23:46;;;;;;;42.35;19.75;;;4.90;99.90;;;;;;5020792;28;20243;-52
2021/12/13 08:26:35;;;;;;;41.17;20.52;;;5.00;99.90;;;;;;5022398;28;20222;-53
2021/12/13 08:29:11;;;;;;;37.08;21.05;;;5.00;99.90;;;;;;5021507;28;20199;-56
2021/12/13 08:31:42;;;;;;;48.53;21.90;;;5.00;99.90;;;;;;5021397;28;20229;-53
2021/12/13 08:34:22;;;;;;;45.35;21.13;;;5.00;99.90;;;;;;5018549;28;20203;-52
2021/12/13 08:36:51;;;;;;;39.95;21.77;;;4.90;99.90;;;;;;5006016;28;20456;-55
2021/12/13 08:39:28;;;;;;;36.35;19.02;;;4.80;99.90;;;;;;5005325;28;20201;-59
2021/12/13 08:42:09;;;;;;;55.55;21.35;;;4.80;99.90;;;;;;5005414;28;20229;-56
2021/12/13 08:44:51;;;;;;;45.45;21.40;;;4.90;99.90;;;;;;5007928;28;20234;-54
2021/12/13 08:47:24;;;;;;;59.17;23.45;;;5.00;99.90;;;;;;5005211;28;20208;-53
2021/12/13 08:49:56;;;;;;;40.33;19.40;;;4.80;99.90;;;;;;5013376;28;20201;-61
2021/12/13 08:52:33;;;;;;;57.40;22.00;;;4.80;99.90;;;;;;5021199;28;20281;-57
2021/12/13 08:55:12;;;;;;;48.25;20.92;;;4.60;99.90;;;;;;5021061;28;20198;-55
2021/12/13 08:57:46;;;;;;;46.33;21.83;;;4.80;99.90;;;;;;5020871;28;20258;-52
2021/12/13 09:00:13;;;;;;;40.42;20.02;;;4.80;99.90;;;;;;5021204;28;20243;-55
2021/12/13 09:02:49;;;;;;;46.15;21.77;;;4.90;99.90;;;;;;5021281;28;20227;-55
2021/12/13 09:05:25;;;;;;;39.95;17.58;;;5.10;99.90;;;;;;5021129;28;20230;-56
2021/12/13 09:07:55;;;;;;;36.22;20.25;;;5.00;99.90;;;;;;5021132;28;20234;-55
2021/12/13 09:10:37;;;;;;;43.55;18.45;;;4.90;99.90;;;;;;5019410;28;20513;-52
2021/12/13 09:13:05;;;;;;;45.47;21.67;;;5.00;99.90;;;;;;5021060;28;20223;-53
2021/12/13 09:15:35;;;;;;;33.60;18.77;;;5.10;99.90;;;;;;5020986;28;20200;-54
2021/12/13 09:18:06;;;;;;;35.15;20.35;;;5.30;99.90;;;;;;5020916;28;20204;-59
2021/12/13 09:20:45;;;;;;;40.33;18.60;;;5.10;99.90;;;;;;5020539;28;20198;-55
2021/12/13 09:23:20;;;;;;;37.47;18.83;;;4.90;99.90;;;;;;5020958;28;20476;-54
2021/12/13 09:26:05;;;;;;;40.70;18.88;;;5.10;99.90;;;;;;5022722;28;20213;-51
2021/12/13 09:28:46;;;;;;;39.67;17.95;;;4.90;99.90;;;;;;5022291;28;20202;-54
2021/12/13 09:31:34;;;;;;;32.60;17.45;;;4.90;99.90;;;;;;5004359;28;20227;-54
2021/12/13 09:34:18;;;;;;;44.20;16.60;;;5.00;99.90;;;;;;5008467;28;20246;-57
2021/12/13 09:36:49;;;;;;;37.33;15.20;;;5.00;99.90;;;;;;5007744;28;20285;-57
2021/12/13 09:39:26;;;;;;;34.22;17.55;;;5.00;99.90;;;;;;5008158;28;20271;-52
2021/12/13 09:42:03;;;;;;;35.42;15.18;;;4.80;99.90;;;;;;5005579;28;20224;-53
2021/12/13 09:44:41;;;;;;;35.88;16.77;;;4.90;99.90;;;;;;5011101;28;20259;-55
2021/12/13 09:47:16;;;;;;;33.58;14.90;;;4.80;99.90;;;;;;5020279;28;20226;-53
2021/12/13 09:49:45;;;;;;;41.70;18.20;;;4.80;99.90;;;;;;5020217;28;20207;-55
2021/12/13 09:52:21;;;;;;;36.17;18.60;;;4.80;99.90;;;;;;5022246;28;20292;-53
2021/12/13 09:55:04;;;;;;;28.38;13.85;;;4.90;99.90;;;;;;5018909;28;20198;-58
2021/12/13 09:57:51;;;;;;;40.15;18.02;;;4.80;99.90;;;;;;5020599;28;20200;-54
2021/12/13 10:00:22;;;;;;;46.35;19.08;;;4.90;99.90;;;;;;5020080;28;20221;-51
2021/12/13 10:02:56;;;;;;;36.78;15.60;;;5.00;99.90;;;;;;5020837;28;20241;-52
2021/12/13 10:05:32;;;;;;;37.15;16.75;;;5.00;99.90;;;;;;5020489;28;20286;-55
2021/12/13 10:08:13;;;;;;;34.83;16.52;;;4.90;99.90;;;;;;5020659;28;20221;-53
2021/12/13 10:11:00;;;;;;;36.47;17.25;;;5.00;99.90;;;;;;5019937;28;20245;-54
2021/12/13 10:13:32;;;;;;;34.22;16.20;;;4.90;99.90;;;;;;5019226;28;20203;-58
2021/12/13 10:16:07;;;;;;;33.58;17.25;;;5.10;99.90;;;;;;5019804;28;20203;-61
2021/12/13 10:18:37;;;;;;;28.63;15.30;;;5.00;99.90;;;;;;5020425;28;20231;-55
2021/12/13 10:21:41;;;;;;;39.92;18.65;;;5.10;99.90;;;;;;5020036;28;20247;-60
2021/12/13 10:24:14;;;;;;;50.92;18.63;;;5.20;99.90;;;;;;4997623;28;20203;-56
2021/12/13 10:26:44;;;;;;;40.22;17.25;;;5.30;99.90;;;;;;5020071;28;20224;-56
2021/12/13 10:29:32;;;;;;;41.08;18.42;;;5.40;99.90;;;;;;5019710;28;20195;-56
2021/12/13 10:32:07;;;;;;;40.45;17.23;;;5.20;99.90;;;;;;5020345;28;20267;-58
2021/12/13 10:34:39;;;;;;;40.22;15.20;;;5.20;99.90;;;;;;5021644;28;20195;-56
2021/12/13 10:37:20;;;;;;;51.17;18.77;;;5.20;99.90;;;;;;5024201;28;20418;-54
2021/12/13 10:39:54;;;;;;;38.20;16.50;;;5.20;99.90;;;;;;5023513;28;20254;-60
2021/12/13 10:42:33;;;;;;;45.88;15.55;;;5.10;99.90;;;;;;5022358;28;20223;-58
2021/12/13 10:45:08;;;;;;;33.67;15.48;;;5.20;99.90;;;;;;5023544;28;20302;-55
2021/12/13 10:47:41;;;;;;;41.80;17.67;;;5.40;99.90;;;;;;5024041;28;20274;-57
2021/12/13 10:50:14;;;;;;;31.20;15.43;;;5.40;99.90;;;;;;5023529;28;20381;-60
2021/12/13 10:52:44;;;;;;;32.03;13.25;;;5.40;99.90;;;;;;5023749;28;20217;-58
2021/12/13 10:55:29;;;;;;;34.13;15.95;;;5.60;99.90;;;;;;5022631;28;20251;-55
2021/12/13 10:57:57;;;;;;;40.78;16.05;;;5.40;99.90;;;;;;5023625;28;20418;-59
2021/12/13 11:00:34;;;;;;;41.50;18.80;;;5.50;99.90;;;;;;5023250;28;20438;-56
2021/12/13 11:03:09;;;;;;;38.40;15.75;;;5.50;99.90;;;;;;5023794;28;20414;-57
2021/12/13 11:05:37;;;;;;;34.03;15.88;;;5.50;99.90;;;;;;5022316;28;20204;-57
2021/12/13 11:08:06;;;;;;;34.75;17.10;;;5.60;99.90;;;;;;5028937;28;20215;-57
2021/12/13 11:10:40;;;;;;;38.75;16.85;;;5.50;99.90;;;;;;5026248;28;20480;-52
2021/12/13 11:13:23;;;;;;;24.60;13.27;;;5.50;99.90;;;;;;5022989;28;20204;-59
2021/12/13 11:15:55;;;;;;;36.50;15.70;;;5.70;99.90;;;;;;5023712;28;20262;-54
2021/12/13 11:18:28;;;;;;;31.98;14.00;;;5.70;99.90;;;;;;5023121;28;20247;-56
2021/12/13 11:21:13;;;;;;;36.10;15.40;;;5.90;99.90;;;;;;5023380;28;20243;-52
2021/12/13 11:23:41;;;;;;;33.17;15.02;;;5.60;99.90;;;;;;5022894;28;20240;-58
2021/12/13 11:26:12;;;;;;;28.08;13.40;;;5.70;99.90;;;;;;5022906;28;20511;-57
2021/12/13 11:28:40;;;;;;;35.25;15.02;;;5.70;99.90;;;;;;5022761;28;20414;-54
2021/12/13 11:31:22;;;;;;;32.30;15.48;;;5.60;99.90;;;;;;5022588;28;20246;-58
2021/12/13 11:34:02;;;;;;;34.30;16.33;;;5.80;99.90;;;;;;5022971;28;20298;-55
2021/12/13 11:36:33;;;;;;;31.80;14.45;;;5.70;99.90;;;;;;5022624;28;20262;-58
2021/12/13 11:39:38;;;;;;;35.83;14.93;;;5.60;99.90;;;;;;5022556;28;20205;-56
2021/12/13 11:42:18;;;;;;;34.20;13.52;;;5.70;99.90;;;;;;5022384;28;20271;-54
2021/12/13 11:45:35;;;;;;;30.67;15.10;;;5.90;99.90;;;;;;5022685;28;20200;-55
2021/12/13 11:48:18;;;;;;;30.55;13.32;;;5.70;99.90;;;;;;5022704;28;20379;-57
2021/12/13 11:50:48;;;;;;;34.00;14.35;;;5.60;99.90;;;;;;5021118;28;20245;-53
2021/12/13 11:53:49;;;;;;;27.65;14.45;;;5.70;99.90;;;;;;5021394;28;20217;-58
2021/12/13 11:56:33;;;;;;;25.70;12.57;;;5.70;99.90;;;;;;5022616;28;20220;-56
2021/12/13 11:59:37;;;;;;;37.78;15.68;;;5.60;99.90;;;;;;5022323;28;20202;-55
2021/12/13 12:02:32;;;;;;;26.70;12.85;;;5.60;99.90;;;;;;5022434;28;20453;-56
2021/12/13 12:05:11;;;;;;;33.08;13.38;;;5.70;99.90;;;;;;5016152;28;20211;-56
2021/12/13 12:08:06;;;;;;;34.70;15.25;;;5.80;99.90;;;;;;5022205;28;20458;-54
2021/12/13 12:10:45;;;;;;;30.80;13.30;;;6.00;99.90;;;;;;5020473;28;20211;-55
2021/12/13 12:13:31;;;;;;;32.00;13.00;;;6.00;99.90;;;;;;5022360;28;20228;-57
2021/12/13 12:16:02;;;;;;;32.35;14.82;;;6.00;99.90;;;;;;5021756;28;20247;-53
2021/12/13 12:18:37;;;;;;;26.88;15.38;;;5.90;99.90;;;;;;5022480;28;20201;-55
2021/12/13 12:21:25;;;;;;;33.08;14.75;;;5.70;99.90;;;;;;5021840;28;20247;-54
2021/12/13 12:23:53;;;;;;;25.48;12.20;;;5.70;99.90;;;;;;5022629;28;20248;-53
2021/12/13 12:26:22;;;;;;;33.08;12.73;;;5.90;99.90;;;;;;5021672;28;20597;-56
2021/12/13 12:28:58;;;;;;;36.30;15.75;;;6.10;99.90;;;;;;5022173;28;20197;-56
2021/12/13 12:31:43;;;;;;;38.08;15.35;;;6.10;99.90;;;;;;5020974;28;20251;-56
2021/12/13 12:34:11;;;;;;;29.70;11.55;;;6.20;99.90;;;;;;5020754;28;20206;-56
2021/12/13 12:36:47;;;;;;;24.73;12.50;;;6.10;99.90;;;;;;5020670;28;20215;-60
2021/12/13 12:39:42;;;;;;;26.33;12.60;;;6.10;99.90;;;;;;5020436;28;20208;-55
2021/12/13 12:42:30;;;;;;;25.67;12.95;;;6.10;99.90;;;;;;5001393;28;20240;-55
2021/12/13 12:45:10;;;;;;;26.45;13.85;;;6.00;99.90;;;;;;5000347;28;20517;-54
2021/12/13 12:47:37;;;;;;;35.20;13.85;;;6.10;99.90;;;;;;5001796;28;20405;-53
2021/12/13 12:50:18;;;;;;;35.67;16.15;;;6.10;99.90;;;;;;5005805;28;20510;-57
2021/12/13 12:53:12;;;;;;;30.08;13.82;;;6.00;99.90;;;;;;5003978;28;20222;-58
2021/12/13 12:55:55;;;;;;;27.70;14.65;;;5.90;99.90;;;;;;5000534;28;20204;-56
2021/12/13 12:58:33;;;;;;;25.23;12.13;;;5.90;99.90;;;;;;5003918;28;20459;-52
2021/12/13 13:01:06;;;;;;;32.65;15.77;;;5.90;99.90;;;;;;5001261;28;20200;-55
2021/12/13 13:03:35;;;;;;;29.85;14.93;;;5.90;99.90;;;;;;5000894;28;20255;-52
2021/12/13 13:06:09;;;;;;;40.85;15.27;;;5.90;99.90;;;;;;5000530;28;20493;-54
2021/12/13 13:08:41;;;;;;;26.10;14.23;;;6.00;99.90;;;;;;5001253;28;20197;-60
2021/12/13 13:11:26;;;;;;;34.65;16.17;;;6.10;99.90;;;;;;5000617;28;20247;-53
2021/12/13 13:14:09;;;;;;;43.17;18.48;;;6.20;99.90;;;;;;5000722;28;20202;-54
2021/12/13 13:16:50;;;;;;;42.95;17.02;;;6.10;99.90;;;;;;4999209;28;20208;-56
2021/12/13 13:19:24;;;;;;;41.40;17.95;;;6.30;99.90;;;;;;5000693;28;20258;-57
2021/12/13 13:21:53;;;;;;;49.28;22.42;;;6.50;99.90;;;;;;5000251;28;20291;-57
2021/12/13 13:24:20;;;;;;;50.63;20.08;;;6.50;99.90;;;;;;5000219;28;20503;-52
2021/12/13 13:26:48;;;;;;;54.95;21.95;;;6.60;99.90;;;;;;5000377;28;20559;-53
2021/12/13 13:29:18;;;;;;;39.85;21.33;;;6.60;99.90;;;;;;4999565;28;20200;-57
2021/12/13 13:31:59;;;;;;;34.83;17.63;;;6.40;99.90;;;;;;4943288;28;1636961;-54
2021/12/13 13:34:38;;;;;;;44.20;18.45;;;6.40;99.90;;;;;;5001137;28;20208;-56